Abdaly, Kuwait

8:41 AM AST on February 12, 2016 (GMT +0300)
Abdally | | Change Station
CLOSE
Current Station
Personal Weather Station
Location: Abdally, JAHRA
Elevation: 46 ft
Nearby Weather Stations

Elev 46 ft 30.03 °N, 47.75 °E | Updated 10 minutes ago

Clear
Clear
50.8 °F
Feels Like 50.8 °F
N
4.0
Wind Variable Wind from NW
Gusts 14.0 mph

Today
High -- | Low -- °F
--% Chance of Precip.
Yesterday
High -- | Low -- °F
Precip. -- in
Pressure 30.21 in
Visibility 4.3 miles
Clouds
Dew Point 40 °F
Humidity 66%
Rainfall 0.00 in
Snow Depth Not available.
6:32 AM 5:34 PM
Waxing Crescent, 17% visible
METAR OIAA 120530Z 28004KT 7000 NSC 10/04 Q1023
Pressure 30.21 in
Visibility 4.3 miles
Clouds
Dew Point 40 °F
Humidity 66%
Rainfall 0.00 in
Snow Depth Not available.
6:32 AM 5:34 PM
Waxing Crescent, 17% visible
METAR OIAA 120530Z 28004KT 7000 NSC 10/04 Q1023

10-Day Weather Forecast

No radar image for this location.
×

Almanac

Astronomy

Feb. 12, 2016 Rise Set
Actual Time
Civil Twilight
Nautical Twilight
Astronomical Twilight
Moon
Length of Visible Light
Length of Day
Tomorrow will be .
, % of the Moon is Illuminated

Today's Extremes

Country Highs Country Lows

Community

WunderPhotos

Upload Photos

1,892,269 photos uploaded!

WunderBlog® & News

Nearby

Air Quality

  Air Quality AQ Index Pollutant
Not available.

Snow Depth

Station Depth Elevation

Earthquake Activity

City Distance Mag. Time & Date
Minimum magnitude displayed is 2.5.

Coastal Water Temperatures

Place Temperature

Stations

Nearby Weather Stations

Station Location Temp. Windchill Dew Point Humidity Wind Precip. Elev Updated Type